createdAt,value
2019-03-05T00:00:44.421Z,6.60
2019-03-05T00:03:13.771Z,6.60
2019-03-05T00:05:42.944Z,6.60
2019-03-05T00:08:14.467Z,6.60
2019-03-05T00:10:44.181Z,6.50
2019-03-05T00:13:13.484Z,6.50
2019-03-05T00:15:44.718Z,6.60
2019-03-05T00:18:14.984Z,6.60
2019-03-05T00:20:44.450Z,6.70
2019-03-05T00:23:16.286Z,6.70
2019-03-05T00:25:45.797Z,6.80
2019-03-05T00:28:26.544Z,6.80
2019-03-05T00:31:18.915Z,6.90
2019-03-05T00:34:23.173Z,6.90
2019-03-05T00:37:22.383Z,6.80
2019-03-05T00:40:36.761Z,6.70
2019-03-05T00:43:09.774Z,6.70
2019-03-05T00:46:19.026Z,6.70
2019-03-05T00:49:26.269Z,6.70
2019-03-05T00:52:12.898Z,6.60
2019-03-05T00:55:15.922Z,6.50
2019-03-05T00:58:18.727Z,6.50
2019-03-05T01:01:29.453Z,6.40
2019-03-05T01:04:30.449Z,6.30
2019-03-05T01:07:00.049Z,6.40
2019-03-05T01:09:29.701Z,6.30
2019-03-05T01:12:02.178Z,6.40
2019-03-05T01:14:33.862Z,6.40
2019-03-05T01:17:03.905Z,6.40
2019-03-05T01:19:35.415Z,6.40
2019-03-05T01:22:05.451Z,6.40
2019-03-05T01:24:37.400Z,6.50
2019-03-05T01:27:06.732Z,6.50
2019-03-05T01:29:36.279Z,6.60
2019-03-05T01:32:21.255Z,6.50
2019-03-05T01:34:57.212Z,6.50
2019-03-05T01:37:26.731Z,6.60
2019-03-05T01:40:08.699Z,6.60
2019-03-05T01:42:37.967Z,6.60
2019-03-05T01:45:08.881Z,6.70
2019-03-05T01:47:38.139Z,6.60
2019-03-05T01:50:12.665Z,6.60
2019-03-05T01:52:44.992Z,6.60
2019-03-05T01:55:14.579Z,6.70
2019-03-05T01:57:43.823Z,6.60
2019-03-05T02:00:13.559Z,6.60
2019-03-05T02:02:44.829Z,6.60
2019-03-05T02:05:16.131Z,6.60
2019-03-05T02:07:45.357Z,6.60
2019-03-05T02:10:17.757Z,6.60
2019-03-05T02:12:47.650Z,6.50
2019-03-05T02:15:17.169Z,6.50
2019-03-05T02:17:46.336Z,6.50
2019-03-05T02:20:18.516Z,6.50
2019-03-05T02:23:12.168Z,6.50
2019-03-05T02:26:08.875Z,6.40
2019-03-05T02:29:34.122Z,6.40
2019-03-05T02:33:06.008Z,6.40
2019-03-05T02:36:11.829Z,6.30
2019-03-05T02:39:18.465Z,6.30
2019-03-05T02:42:31.619Z,6.20
2019-03-05T02:45:31.644Z,6.20
2019-03-05T02:48:31.169Z,6.20
2019-03-05T02:51:26.648Z,6.30
2019-03-05T02:54:39.379Z,6.40
2019-03-05T02:57:07.647Z,6.30
2019-03-05T02:59:40.432Z,6.30
2019-03-05T03:02:29.498Z,6.30
2019-03-05T03:05:18.078Z,6.30
2019-03-05T03:07:47.329Z,6.30
2019-03-05T03:10:19.542Z,6.20
2019-03-05T03:12:48.856Z,6.30
2019-03-05T03:15:20.949Z,6.20
2019-03-05T03:17:50.788Z,6.20
2019-03-05T03:20:20.940Z,6.20
2019-03-05T03:22:50.513Z,6.20
2019-03-05T03:25:23.322Z,6.20
2019-03-05T03:27:52.896Z,6.20
2019-03-05T03:30:23.793Z,6.10
2019-03-05T03:32:54.505Z,6.10
2019-03-05T03:35:27.183Z,6.10
2019-03-05T03:37:56.427Z,6.10
2019-03-05T03:40:27.076Z,6.00
2019-03-05T03:42:56.322Z,6.00
2019-03-05T03:45:26.322Z,5.90
2019-03-05T03:47:55.768Z,5.90
2019-03-05T03:50:25.881Z,5.90
2019-03-05T03:52:55.181Z,5.80
2019-03-05T03:55:24.343Z,5.80
2019-03-05T03:57:53.781Z,5.80
2019-03-05T04:00:24.058Z,5.80
2019-03-05T04:02:53.882Z,5.70
2019-03-05T04:05:23.387Z,5.70
2019-03-05T04:07:52.549Z,5.70
2019-03-05T04:10:21.725Z,5.70
2019-03-05T04:12:53.064Z,5.70
2019-03-05T04:15:23.026Z,5.70
2019-03-05T04:17:52.246Z,5.70
2019-03-05T04:20:55.675Z,5.70
2019-03-05T04:23:24.906Z,5.70
2019-03-05T04:25:54.460Z,5.60
2019-03-05T04:28:23.976Z,5.70
2019-03-05T04:30:53.268Z,5.60
2019-03-05T04:33:22.911Z,5.50
2019-03-05T04:35:52.451Z,5.40
2019-03-05T04:38:21.699Z,5.30
2019-03-05T04:40:57.491Z,5.30
2019-03-05T04:43:27.041Z,5.30
2019-03-05T04:46:21.955Z,5.20
2019-03-05T04:49:13.955Z,5.10
2019-03-05T04:51:48.942Z,5.10
2019-03-05T04:54:18.466Z,5.00
2019-03-05T04:56:48.025Z,5.00
2019-03-05T04:59:17.345Z,4.90
2019-03-05T05:01:49.327Z,4.90
2019-03-05T05:04:18.492Z,4.90
2019-03-05T05:06:47.663Z,4.80
2019-03-05T05:09:16.823Z,4.80
2019-03-05T05:11:48.089Z,4.80
2019-03-05T05:14:18.645Z,4.70
2019-03-05T05:16:50.860Z,4.70
2019-03-05T05:19:20.201Z,4.60
2019-03-05T05:21:49.412Z,4.70
2019-03-05T05:24:18.917Z,4.70
2019-03-05T05:26:48.418Z,4.70
2019-03-05T05:29:17.600Z,4.70
2019-03-05T05:31:46.825Z,4.70
2019-03-05T05:34:16.077Z,4.70
2019-03-05T05:36:47.376Z,4.70
2019-03-05T05:39:52.677Z,4.70
2019-03-05T05:42:22.207Z,4.70
2019-03-05T05:44:51.711Z,4.70
2019-03-05T05:47:20.865Z,4.80
2019-03-05T05:49:52.073Z,4.80
2019-03-05T05:52:21.657Z,4.80
2019-03-05T05:54:50.837Z,4.80
2019-03-05T05:57:20.087Z,4.80
2019-03-05T05:59:49.269Z,4.80
2019-03-05T06:02:18.791Z,4.80
2019-03-05T06:04:48.251Z,4.80
2019-03-05T06:07:18.023Z,4.70
2019-03-05T06:09:47.321Z,4.70
2019-03-05T06:12:16.485Z,4.70
2019-03-05T06:14:45.958Z,4.70
2019-03-05T06:17:15.109Z,4.70
2019-03-05T06:19:44.305Z,4.70
2019-03-05T06:22:14.027Z,4.70
2019-03-05T06:24:43.311Z,4.80
2019-03-05T06:27:15.245Z,4.80
2019-03-05T06:29:44.514Z,4.80
2019-03-05T06:32:16.612Z,4.80
2019-03-05T06:34:47.639Z,4.80
2019-03-05T06:37:17.310Z,4.80
2019-03-05T06:39:46.747Z,4.80
2019-03-05T06:42:16.442Z,4.80
2019-03-05T06:44:45.669Z,4.80
2019-03-05T06:47:15.411Z,4.80
2019-03-05T06:49:48.019Z,4.80
2019-03-05T06:52:21.035Z,4.90
2019-03-05T06:54:50.200Z,5.00
2019-03-05T06:57:19.337Z,5.00
2019-03-05T06:59:50.306Z,5.10
2019-03-05T07:02:19.558Z,5.10
2019-03-05T07:04:57.660Z,5.20
2019-03-05T07:07:31.176Z,5.30
2019-03-05T07:10:23.106Z,5.40
2019-03-05T07:13:10.630Z,5.50
2019-03-05T07:16:30.269Z,5.50
2019-03-05T07:19:29.499Z,5.60
2019-03-05T07:22:22.896Z,5.60
2019-03-05T07:24:54.162Z,5.70
2019-03-05T07:27:32.696Z,5.70
2019-03-05T07:30:21.867Z,5.80
2019-03-05T07:32:51.246Z,5.80
2019-03-05T07:35:24.054Z,5.90
2019-03-05T07:37:53.246Z,5.90
2019-03-05T07:40:22.516Z,6.00
2019-03-05T07:42:51.818Z,6.00
2019-03-05T07:45:21.490Z,6.00
2019-03-05T07:47:53.422Z,6.10
2019-03-05T07:50:25.239Z,6.20
2019-03-05T07:52:54.466Z,6.20
2019-03-05T07:55:25.771Z,6.20
2019-03-05T07:57:55.032Z,6.30
2019-03-05T08:00:24.382Z,6.40
2019-03-05T08:02:53.606Z,6.40
2019-03-05T08:05:24.420Z,6.50
2019-03-05T08:07:54.417Z,6.60
2019-03-05T08:10:31.820Z,6.70
2019-03-05T08:13:22.237Z,6.80
2019-03-05T08:16:18.901Z,6.80
2019-03-05T08:18:48.503Z,6.90
2019-03-05T08:21:17.830Z,6.90
2019-03-05T08:23:48.472Z,6.90
2019-03-05T08:26:17.961Z,7.10
2019-03-05T08:28:47.209Z,7.20
2019-03-05T08:31:16.586Z,7.30
2019-03-05T08:33:46.340Z,7.50
2019-03-05T08:36:15.566Z,7.80
2019-03-05T08:38:44.721Z,8.40
2019-03-05T08:41:14.162Z,8.60
2019-03-05T08:43:44.111Z,8.40
2019-03-05T08:46:13.394Z,8.10
2019-03-05T08:48:42.570Z,8.20
2019-03-05T08:51:12.421Z,8.70
2019-03-05T08:53:49.243Z,9.00
2019-03-05T08:56:12.756Z,9.50
2019-03-05T08:58:41.994Z,9.90
2019-03-05T09:01:11.502Z,9.70
2019-03-05T09:03:40.741Z,9.40
2019-03-05T09:06:10.065Z,9.30
2019-03-05T09:08:58.477Z,9.00
2019-03-05T09:11:27.754Z,9.10
2019-03-05T09:13:57.316Z,10.00
2019-03-05T09:16:26.713Z,10.30
2019-03-05T09:18:56.336Z,10.10
2019-03-05T09:21:25.642Z,10.20
2019-03-05T09:23:54.804Z,10.30
2019-03-05T09:26:24.553Z,10.70
2019-03-05T09:28:59.043Z,11.30
2019-03-05T09:31:28.762Z,11.90
2019-03-05T09:33:58.031Z,12.20
2019-03-05T09:36:29.182Z,12.80
2019-03-05T09:38:58.504Z,12.80
2019-03-05T09:41:35.043Z,12.30
2019-03-05T09:44:04.896Z,12.10
2019-03-05T09:46:34.146Z,12.20
2019-03-05T09:49:03.394Z,12.40
2019-03-05T09:51:32.673Z,13.00
2019-03-05T09:54:01.932Z,13.60
2019-03-05T09:56:31.469Z,13.90
2019-03-05T09:59:00.952Z,14.20
2019-03-05T10:01:30.190Z,14.40
2019-03-05T10:03:59.788Z,15.10
2019-03-05T10:06:29.087Z,15.10
2019-03-05T10:08:58.601Z,14.70
2019-03-05T10:11:28.190Z,13.80
2019-03-05T10:13:57.400Z,12.90
2019-03-05T10:16:29.069Z,12.20
2019-03-05T10:18:58.334Z,11.70
2019-03-05T10:21:27.939Z,11.30
2019-03-05T10:24:09.690Z,11.00
2019-03-05T10:26:30.879Z,10.90
2019-03-05T10:29:03.439Z,10.80
2019-03-05T10:31:33.341Z,10.80
2019-03-05T10:34:02.835Z,10.90
2019-03-05T10:36:32.166Z,11.00
2019-03-05T10:39:01.765Z,11.10
2019-03-05T10:41:31.142Z,11.10
2019-03-05T10:44:00.631Z,11.10
2019-03-05T10:46:29.937Z,11.40
2019-03-05T10:49:00.069Z,11.40
2019-03-05T10:51:29.349Z,11.60
2019-03-05T10:53:58.649Z,12.90
2019-03-05T10:56:28.377Z,14.30
2019-03-05T10:58:57.545Z,15.50
2019-03-05T11:01:28.478Z,16.10
2019-03-05T11:03:57.816Z,15.20
2019-03-05T11:06:28.344Z,14.20
2019-03-05T11:08:57.563Z,13.70
2019-03-05T11:11:26.747Z,13.40
2019-03-05T11:13:55.941Z,14.10
2019-03-05T11:16:30.691Z,14.90
2019-03-05T11:18:57.448Z,15.50
2019-03-05T11:21:26.701Z,15.70
2019-03-05T11:23:58.316Z,15.10
2019-03-05T11:26:30.598Z,14.20
2019-03-05T11:29:00.211Z,13.20
2019-03-05T11:31:29.450Z,12.90
2019-03-05T11:33:59.036Z,14.10
2019-03-05T11:36:28.205Z,15.60
2019-03-05T11:38:57.448Z,16.60
2019-03-05T11:41:26.925Z,16.50
2019-03-05T11:43:56.789Z,15.70
2019-03-05T11:46:29.390Z,14.60
2019-03-05T11:48:59.186Z,13.70
2019-03-05T11:51:29.552Z,13.20
2019-03-05T11:54:01.102Z,12.80
2019-03-05T11:56:31.522Z,12.80
2019-03-05T11:59:00.680Z,13.00
2019-03-05T12:01:42.667Z,13.90
2019-03-05T12:04:14.813Z,15.90
2019-03-05T12:06:45.620Z,17.90
2019-03-05T12:09:14.912Z,19.00
2019-03-05T12:11:44.094Z,19.50
2019-03-05T12:14:13.652Z,19.30
2019-03-05T12:16:43.218Z,18.50
2019-03-05T12:19:15.135Z,17.00
2019-03-05T12:21:44.403Z,16.90
2019-03-05T12:24:13.561Z,18.50
2019-03-05T12:26:43.120Z,18.60
2019-03-05T12:29:12.409Z,19.30
2019-03-05T12:31:41.714Z,20.40
2019-03-05T12:34:10.904Z,21.00
2019-03-05T12:36:40.360Z,22.10
2019-03-05T12:39:10.407Z,22.20
2019-03-05T12:41:42.360Z,21.10
2019-03-05T12:44:11.566Z,19.30
2019-03-05T12:46:40.726Z,17.80
2019-03-05T12:49:10.350Z,16.90
2019-03-05T12:51:39.602Z,17.50
2019-03-05T12:54:08.765Z,17.10
2019-03-05T12:56:39.375Z,16.50
2019-03-05T12:59:08.625Z,17.20
2019-03-05T13:01:38.162Z,18.50
2019-03-05T13:04:07.377Z,19.70
2019-03-05T13:06:36.538Z,20.30
2019-03-05T13:09:13.557Z,19.20
2019-03-05T13:11:41.552Z,18.20
2019-03-05T13:14:12.274Z,16.80
2019-03-05T13:16:41.678Z,16.10
2019-03-05T13:19:13.424Z,15.60
2019-03-05T13:21:44.319Z,15.20
2019-03-05T13:24:14.992Z,14.50
2019-03-05T13:26:44.956Z,14.00
2019-03-05T13:29:19.375Z,13.90
2019-03-05T13:31:46.228Z,13.70
2019-03-05T13:34:17.755Z,14.80
2019-03-05T13:36:50.525Z,16.70
2019-03-05T13:39:22.303Z,17.60
2019-03-05T13:41:53.914Z,18.30
2019-03-05T13:44:36.230Z,18.20
2019-03-05T13:47:07.912Z,18.10
2019-03-05T13:50:24.057Z,18.00
2019-03-05T13:53:24.624Z,17.80
2019-03-05T13:56:37.608Z,16.80
2019-03-05T13:59:37.358Z,15.80
2019-03-05T14:02:08.228Z,15.50
2019-03-05T14:04:52.163Z,15.00
2019-03-05T14:08:07.278Z,14.60
2019-03-05T14:10:36.889Z,14.20
2019-03-05T14:13:06.141Z,13.70
2019-03-05T14:15:36.759Z,13.40
2019-03-05T14:18:06.631Z,13.20
2019-03-05T14:20:35.864Z,13.00
2019-03-05T14:23:05.141Z,13.10
2019-03-05T14:25:35.054Z,13.20
2019-03-05T14:28:04.304Z,13.20
2019-03-05T14:30:33.713Z,13.10
2019-03-05T14:33:05.130Z,13.30
2019-03-05T14:35:34.875Z,13.40
2019-03-05T14:38:04.573Z,13.40
2019-03-05T14:40:38.209Z,13.50
2019-03-05T14:43:08.128Z,13.70
2019-03-05T14:45:37.690Z,13.80
2019-03-05T14:48:09.461Z,13.80
2019-03-05T14:50:39.106Z,13.70
2019-03-05T14:53:10.710Z,13.60
2019-03-05T14:55:39.935Z,13.50
2019-03-05T14:58:10.837Z,13.60
2019-03-05T15:00:41.650Z,13.60
2019-03-05T15:03:10.888Z,13.60
2019-03-05T15:05:40.399Z,13.60
2019-03-05T15:08:09.956Z,13.50
2019-03-05T15:10:39.215Z,13.30
2019-03-05T15:13:17.284Z,13.10
2019-03-05T15:15:43.412Z,13.00
2019-03-05T15:18:14.496Z,12.90
2019-03-05T15:20:46.350Z,12.90
2019-03-05T15:23:16.159Z,13.10
2019-03-05T15:25:45.759Z,13.30
2019-03-05T15:28:15.011Z,13.30
2019-03-05T15:30:44.480Z,13.20
2019-03-05T15:33:16.177Z,13.20
2019-03-05T15:35:45.423Z,13.30
2019-03-05T15:38:17.912Z,13.20
2019-03-05T15:40:47.403Z,13.10
2019-03-05T15:43:17.969Z,13.00
2019-03-05T15:45:47.221Z,13.00
2019-03-05T15:48:16.912Z,13.10
2019-03-05T15:50:46.657Z,13.20
2019-03-05T15:53:15.871Z,13.30
2019-03-05T15:55:46.442Z,13.60
2019-03-05T15:58:16.057Z,13.70
2019-03-05T16:00:45.709Z,13.80
2019-03-05T16:03:14.977Z,13.50
2019-03-05T16:05:44.565Z,13.40
2019-03-05T16:08:14.181Z,13.20
2019-03-05T16:10:43.973Z,13.10
2019-03-05T16:13:15.372Z,13.00
2019-03-05T16:15:45.557Z,12.90
2019-03-05T16:18:15.872Z,12.80
2019-03-05T16:20:45.369Z,12.70
2019-03-05T16:23:15.145Z,12.70
2019-03-05T16:25:46.212Z,12.70
2019-03-05T16:28:15.814Z,12.50
2019-03-05T16:31:02.722Z,12.40
2019-03-05T16:33:39.130Z,12.30
2019-03-05T16:36:37.734Z,12.20
2019-03-05T16:39:12.359Z,12.10
2019-03-05T16:41:57.399Z,12.00
2019-03-05T16:44:40.940Z,11.90
2019-03-05T16:47:33.249Z,11.80
2019-03-05T16:50:24.341Z,11.80
2019-03-05T16:53:00.878Z,11.80
2019-03-05T16:56:14.478Z,11.70
2019-03-05T16:59:08.848Z,11.70
2019-03-05T17:02:04.208Z,11.60
2019-03-05T17:04:58.134Z,11.60
2019-03-05T17:07:50.311Z,11.50
2019-03-05T17:10:37.479Z,11.50
2019-03-05T17:13:07.237Z,11.50
2019-03-05T17:15:38.380Z,11.50
2019-03-05T17:18:07.822Z,11.40
2019-03-05T17:20:37.160Z,11.40
2019-03-05T17:23:07.095Z,11.30
2019-03-05T17:25:36.429Z,11.30
2019-03-05T17:28:05.856Z,11.30
2019-03-05T17:30:48.407Z,11.30
2019-03-05T17:33:20.330Z,11.20
2019-03-05T17:35:49.680Z,11.20
2019-03-05T17:38:19.472Z,11.20
2019-03-05T17:40:48.843Z,11.20
2019-03-05T17:43:18.188Z,11.10
2019-03-05T17:45:47.477Z,11.10
2019-03-05T17:48:17.479Z,11.10
2019-03-05T17:50:49.506Z,11.10
2019-03-05T17:53:18.862Z,11.10
2019-03-05T17:55:48.523Z,11.10
2019-03-05T17:58:17.974Z,11.10
2019-03-05T18:00:48.697Z,11.10
2019-03-05T18:03:18.581Z,11.10
2019-03-05T18:05:47.921Z,11.10
2019-03-05T18:08:17.569Z,11.10
2019-03-05T18:10:47.283Z,11.10
2019-03-05T18:13:16.595Z,11.10
2019-03-05T18:15:47.682Z,11.10
2019-03-05T18:18:17.290Z,11.10
2019-03-05T18:20:47.268Z,11.10
2019-03-05T18:23:18.352Z,11.10
2019-03-05T18:25:47.681Z,11.00
2019-03-05T18:28:17.380Z,11.00
2019-03-05T18:30:47.010Z,11.00
2019-03-05T18:33:16.381Z,11.00
2019-03-05T18:36:05.007Z,10.90
2019-03-05T18:38:34.582Z,10.90
2019-03-05T18:41:04.264Z,10.90
2019-03-05T18:43:33.741Z,10.90
2019-03-05T18:46:03.140Z,10.80
2019-03-05T18:48:32.546Z,10.80
2019-03-05T18:51:02.310Z,10.80
2019-03-05T18:53:31.579Z,10.80
2019-03-05T18:56:01.539Z,10.80
2019-03-05T18:58:31.146Z,10.80
2019-03-05T19:01:01.128Z,10.80
2019-03-05T19:03:30.371Z,10.80
2019-03-05T19:05:59.635Z,10.80
2019-03-05T19:08:28.901Z,10.70
2019-03-05T19:10:58.279Z,10.70
2019-03-05T19:13:29.929Z,10.70
2019-03-05T19:15:59.361Z,10.60
2019-03-05T19:18:28.747Z,10.60
2019-03-05T19:20:58.805Z,10.50
2019-03-05T19:23:28.095Z,10.50
2019-03-05T19:25:57.626Z,10.50
2019-03-05T19:28:45.969Z,10.50
2019-03-05T19:31:15.556Z,10.60
2019-03-05T19:33:44.923Z,10.50
2019-03-05T19:36:33.339Z,10.50
2019-03-05T19:39:02.708Z,10.50
2019-03-05T19:41:31.889Z,10.50
2019-03-05T19:44:01.259Z,10.50
2019-03-05T19:46:33.646Z,10.50
2019-03-05T19:49:05.231Z,10.50
2019-03-05T19:51:35.350Z,10.40
2019-03-05T19:54:05.808Z,10.40
2019-03-05T19:56:37.868Z,10.40
2019-03-05T19:59:07.476Z,10.50
2019-03-05T20:01:40.242Z,10.50
2019-03-05T20:04:11.863Z,10.50
2019-03-05T20:06:44.046Z,10.50
2019-03-05T20:09:21.362Z,10.40
2019-03-05T20:11:50.635Z,10.50
2019-03-05T20:14:20.910Z,10.50
2019-03-05T20:16:50.200Z,10.60
2019-03-05T20:19:22.504Z,10.50
2019-03-05T20:21:52.177Z,10.60
2019-03-05T20:24:21.505Z,10.50
2019-03-05T20:26:51.201Z,10.60
2019-03-05T20:29:20.554Z,10.60
2019-03-05T20:31:49.916Z,10.60
2019-03-05T20:34:19.534Z,10.60
2019-03-05T20:36:48.891Z,10.50
2019-03-05T20:39:18.281Z,10.50
2019-03-05T20:41:48.176Z,10.50
2019-03-05T20:44:17.441Z,10.40
2019-03-05T20:46:46.746Z,10.40
2019-03-05T20:49:16.022Z,10.30
2019-03-05T20:51:45.376Z,10.30
2019-03-05T20:54:17.788Z,10.30
2019-03-05T20:56:47.113Z,10.20
2019-03-05T20:59:19.267Z,10.20
2019-03-05T21:01:49.020Z,10.20
2019-03-05T21:04:18.303Z,10.20
2019-03-05T21:06:48.009Z,10.20
2019-03-05T21:09:24.632Z,10.10
2019-03-05T21:11:56.597Z,10.20
2019-03-05T21:14:25.938Z,10.20
2019-03-05T21:16:58.752Z,10.20
2019-03-05T21:19:28.055Z,10.20
2019-03-05T21:21:57.304Z,10.30
2019-03-05T21:24:27.692Z,10.30
2019-03-05T21:26:56.892Z,10.20
2019-03-05T21:29:26.575Z,10.20
2019-03-05T21:31:55.857Z,10.20
2019-03-05T21:34:26.942Z,10.20
2019-03-05T21:36:56.200Z,10.20
2019-03-05T21:39:25.493Z,10.10
2019-03-05T21:41:54.803Z,10.10
2019-03-05T21:44:24.146Z,10.10
2019-03-05T21:46:53.705Z,10.10
2019-03-05T21:49:23.559Z,10.00
2019-03-05T21:51:52.848Z,10.00
2019-03-05T21:54:22.498Z,10.00
2019-03-05T21:56:51.760Z,10.00
2019-03-05T21:59:21.325Z,10.00
2019-03-05T22:01:54.396Z,9.90
2019-03-05T22:04:23.594Z,9.90
2019-03-05T22:06:52.926Z,10.00
2019-03-05T22:09:22.482Z,10.00
2019-03-05T22:11:52.251Z,10.00
2019-03-05T22:14:25.308Z,9.90
2019-03-05T22:16:56.658Z,10.00
2019-03-05T22:19:25.997Z,10.00
2019-03-05T22:21:57.056Z,10.00
2019-03-05T22:24:26.579Z,10.00
2019-03-05T22:26:58.611Z,9.90
2019-03-05T22:29:28.142Z,9.90
2019-03-05T22:31:57.364Z,9.90
2019-03-05T22:34:27.036Z,9.90
2019-03-05T22:36:56.285Z,10.00
2019-03-05T22:39:27.413Z,10.00
2019-03-05T22:41:59.340Z,10.10
2019-03-05T22:44:28.775Z,10.10
2019-03-05T22:46:58.063Z,10.10
2019-03-05T22:49:27.947Z,10.10
2019-03-05T22:51:57.122Z,10.10
2019-03-05T22:54:29.511Z,10.10
2019-03-05T22:56:59.115Z,10.10
2019-03-05T22:59:28.935Z,10.10
2019-03-05T23:01:59.036Z,10.10
2019-03-05T23:04:36.152Z,10.10
2019-03-05T23:07:06.971Z,10.10
2019-03-05T23:09:39.556Z,10.10
2019-03-05T23:12:08.791Z,10.10
2019-03-05T23:14:38.136Z,10.10
2019-03-05T23:17:07.964Z,10.10
2019-03-05T23:19:37.514Z,10.10
2019-03-05T23:22:07.035Z,10.10
2019-03-05T23:24:36.304Z,10.20
2019-03-05T23:27:07.785Z,10.20
2019-03-05T23:29:47.797Z,10.20
2019-03-05T23:32:19.988Z,10.20
2019-03-05T23:34:49.253Z,10.20
2019-03-05T23:37:18.511Z,10.20
2019-03-05T23:39:48.031Z,10.20
2019-03-05T23:42:18.163Z,10.30
2019-03-05T23:44:47.335Z,10.30
2019-03-05T23:47:16.851Z,10.30
2019-03-05T23:49:46.430Z,10.30
2019-03-05T23:52:15.735Z,10.30
2019-03-05T23:54:45.003Z,10.30
2019-03-05T23:57:14.241Z,10.40
2019-03-05T23:59:43.510Z,10.30
